createdAt,value
2018-08-27T01:30:34.676Z,14.84
2018-08-27T01:30:35.185Z,14.81
2018-08-27T01:30:35.778Z,14.81
2018-08-27T01:30:36.376Z,14.83
2018-08-27T01:30:36.976Z,14.74
2018-08-27T01:30:37.576Z,14.78
2018-08-27T01:30:38.176Z,14.83
2018-08-27T01:31:31.665Z,14.71
2018-08-27T01:31:32.241Z,14.78
2018-08-27T01:31:32.838Z,14.74
2018-08-27T01:31:33.439Z,14.71
2018-08-27T01:31:34.040Z,14.83
2018-08-27T01:31:34.640Z,14.74
2018-08-27T01:31:35.238Z,14.83
2018-08-27T01:31:35.837Z,14.83
2018-08-27T01:32:30.344Z,14.75
2018-08-27T01:32:30.913Z,14.75
2018-08-27T01:32:31.514Z,14.75
2018-08-27T01:32:32.114Z,14.74
2018-08-27T01:32:32.713Z,14.78
2018-08-27T01:32:33.314Z,14.86
2018-08-27T01:32:33.913Z,14.80
2018-08-27T01:32:34.512Z,14.78
2018-08-27T01:33:27.996Z,14.74
2018-08-27T01:33:28.568Z,14.75
2018-08-27T01:33:29.170Z,14.80
2018-08-27T01:33:29.767Z,14.80
2018-08-27T01:33:30.367Z,14.78
2018-08-27T01:33:30.969Z,14.72
2018-08-27T01:33:31.567Z,14.75
2018-08-27T01:33:32.166Z,14.75
2018-08-27T01:34:25.762Z,14.80
2018-08-27T01:34:26.323Z,14.83
2018-08-27T01:34:26.923Z,14.74
2018-08-27T01:34:27.522Z,14.74
2018-08-27T01:34:28.123Z,14.71
2018-08-27T01:34:28.722Z,14.75
2018-08-27T01:34:29.320Z,14.78
2018-08-27T01:34:29.927Z,14.72
2018-08-27T01:35:23.402Z,14.67
2018-08-27T01:35:23.974Z,14.75
2018-08-27T01:35:24.573Z,14.75
2018-08-27T01:35:25.174Z,14.67
2018-08-27T01:35:25.774Z,14.71
2018-08-27T01:35:26.373Z,14.72
2018-08-27T01:35:26.974Z,14.84
2018-08-27T01:35:27.573Z,14.69
2018-08-27T01:36:21.054Z,14.69
2018-08-27T01:36:21.625Z,14.72
2018-08-27T01:36:22.230Z,14.75
2018-08-27T01:36:22.825Z,14.71
2018-08-27T01:36:23.426Z,14.74
2018-08-27T01:36:24.026Z,14.74
2018-08-27T01:36:24.625Z,14.72
2018-08-27T01:36:25.225Z,14.78
2018-08-27T01:37:18.704Z,14.74
2018-08-27T01:37:19.278Z,14.74
2018-08-27T01:37:19.884Z,14.71
2018-08-27T01:37:20.478Z,14.86
2018-08-27T01:37:21.078Z,14.74
2018-08-27T01:37:21.678Z,14.78
2018-08-27T01:37:22.281Z,14.81
2018-08-27T01:37:22.876Z,14.75
2018-08-27T01:38:17.379Z,14.71
2018-08-27T01:38:17.953Z,14.72
2018-08-27T01:38:18.552Z,14.78
2018-08-27T01:38:19.152Z,14.72
2018-08-27T01:38:19.752Z,14.75
2018-08-27T01:38:20.352Z,14.78
2018-08-27T01:38:20.952Z,14.75
2018-08-27T01:38:21.553Z,14.81
2018-08-27T01:39:15.035Z,14.72
2018-08-27T01:39:15.605Z,14.81
2018-08-27T01:39:16.208Z,14.80
2018-08-27T01:39:16.806Z,14.75
2018-08-27T01:39:17.405Z,14.83
2018-08-27T01:39:18.007Z,14.75
2018-08-27T01:39:18.605Z,14.71
2018-08-27T01:39:19.205Z,14.86
2018-08-27T01:40:12.687Z,14.72
2018-08-27T01:40:13.258Z,14.74
2018-08-27T01:40:13.865Z,14.71
2018-08-27T01:40:14.457Z,14.71
2018-08-27T01:40:15.057Z,14.78
2018-08-27T01:40:15.658Z,14.88
2018-08-27T01:40:16.256Z,14.75
2018-08-27T01:40:16.856Z,14.86
2018-08-27T01:41:11.360Z,14.75
2018-08-27T01:41:11.932Z,14.72
2018-08-27T01:41:12.541Z,14.81
2018-08-27T01:41:13.132Z,14.78
2018-08-27T01:41:13.733Z,14.84
2018-08-27T01:41:14.332Z,14.87
2018-08-27T01:41:14.933Z,14.80
2018-08-27T01:41:15.532Z,14.86
2018-08-27T01:42:09.014Z,14.81
2018-08-27T01:42:09.588Z,14.78
2018-08-27T01:42:10.186Z,14.78
2018-08-27T01:42:10.785Z,14.78
2018-08-27T01:42:11.384Z,14.80
2018-08-27T01:42:11.986Z,14.88
2018-08-27T01:42:12.585Z,14.86
2018-08-27T01:42:13.191Z,14.80
2018-08-27T01:43:06.666Z,14.83
2018-08-27T01:43:07.236Z,14.80
2018-08-27T01:43:07.840Z,14.78
2018-08-27T01:43:08.436Z,14.86
2018-08-27T01:43:09.036Z,14.75
2018-08-27T01:43:09.636Z,14.80
2018-08-27T01:43:10.235Z,14.88
2018-08-27T01:43:10.837Z,14.83
2018-08-27T01:44:04.317Z,14.84
2018-08-27T01:44:04.888Z,14.75
2018-08-27T01:44:05.493Z,14.83
2018-08-27T01:44:06.090Z,14.87
2018-08-27T01:44:06.687Z,14.81
2018-08-27T01:44:07.286Z,14.87
2018-08-27T01:44:07.887Z,14.72
2018-08-27T01:44:08.490Z,14.80
2018-08-27T01:45:01.970Z,14.84
2018-08-27T01:45:02.541Z,14.80
2018-08-27T01:45:03.141Z,14.87
2018-08-27T01:45:03.740Z,14.84
2018-08-27T01:45:04.340Z,14.83
2018-08-27T01:45:04.939Z,14.83
2018-08-27T01:45:05.540Z,14.78
2018-08-27T01:45:06.140Z,14.86
2018-08-27T01:46:00.643Z,14.88
2018-08-27T01:46:01.215Z,14.80
2018-08-27T01:46:01.817Z,14.83
2018-08-27T01:46:02.415Z,14.83
2018-08-27T01:46:03.017Z,14.86
2018-08-27T01:46:03.615Z,14.86
2018-08-27T01:46:04.214Z,14.84
2018-08-27T01:46:04.816Z,14.84
2018-08-27T01:46:59.321Z,14.87
2018-08-27T01:46:59.892Z,14.81
2018-08-27T01:47:00.494Z,14.86
2018-08-27T01:47:01.093Z,14.84
2018-08-27T01:47:01.693Z,14.87
2018-08-27T01:47:02.291Z,14.84
2018-08-27T01:47:02.895Z,14.83
2018-08-27T01:47:03.491Z,14.84
2018-08-27T01:47:57.994Z,14.83
2018-08-27T01:47:58.570Z,14.91
2018-08-27T01:47:59.168Z,14.88
2018-08-27T01:47:59.767Z,14.88
2018-08-27T01:48:00.368Z,14.88
2018-08-27T01:48:00.967Z,14.86
2018-08-27T01:48:01.567Z,14.81
2018-08-27T01:48:02.167Z,14.83
2018-08-27T01:48:56.671Z,14.91
2018-08-27T01:48:57.244Z,14.91
2018-08-27T01:48:57.844Z,14.99
2018-08-27T01:48:58.445Z,14.93
2018-08-27T01:48:59.041Z,14.84
2018-08-27T01:48:59.640Z,14.84
2018-08-27T01:49:00.239Z,14.94
2018-08-27T01:49:00.841Z,14.84
2018-08-27T01:49:54.324Z,14.90
2018-08-27T01:49:54.895Z,14.91
2018-08-27T01:49:55.496Z,14.95
2018-08-27T01:49:56.099Z,14.90
2018-08-27T01:49:56.696Z,14.95
2018-08-27T01:49:57.296Z,14.98
2018-08-27T01:49:57.895Z,14.91
2018-08-27T01:49:58.494Z,14.93
2018-08-27T01:50:51.976Z,14.84
2018-08-27T01:50:52.548Z,14.90
2018-08-27T01:50:53.148Z,15.01
2018-08-27T01:50:53.747Z,14.95
2018-08-27T01:50:54.348Z,14.91
2018-08-27T01:50:54.950Z,15.02
2018-08-27T01:50:55.556Z,14.94
2018-08-27T01:50:56.147Z,14.95
2018-08-27T01:51:49.629Z,14.90
2018-08-27T01:51:50.198Z,14.98
2018-08-27T01:51:50.800Z,14.95
2018-08-27T01:51:51.399Z,14.91
2018-08-27T01:51:51.998Z,14.99
2018-08-27T01:51:52.600Z,14.99
2018-08-27T01:51:53.198Z,14.99
2018-08-27T01:51:53.799Z,14.99
2018-08-27T01:52:48.302Z,15.01
2018-08-27T01:52:48.875Z,14.99
2018-08-27T01:52:49.478Z,14.99
2018-08-27T01:52:50.073Z,15.03
2018-08-27T01:52:50.673Z,15.02
2018-08-27T01:52:51.274Z,14.95
2018-08-27T01:52:51.874Z,15.01
2018-08-27T01:52:52.473Z,14.90
2018-08-27T01:53:46.978Z,15.06
2018-08-27T01:53:47.550Z,14.95
2018-08-27T01:53:48.151Z,15.11
2018-08-27T01:53:48.750Z,15.01
2018-08-27T01:53:49.352Z,14.95
2018-08-27T01:53:49.950Z,14.98
2018-08-27T01:53:50.550Z,15.01
2018-08-27T01:53:51.149Z,15.03
2018-08-27T01:54:44.634Z,15.02
2018-08-27T01:54:45.203Z,15.06
2018-08-27T01:54:45.804Z,15.11
2018-08-27T01:54:46.404Z,15.02
2018-08-27T01:54:47.002Z,15.09
2018-08-27T01:54:47.603Z,15.06
2018-08-27T01:54:48.203Z,15.06
2018-08-27T01:54:48.802Z,15.09
2018-08-27T01:55:42.281Z,15.09
2018-08-27T01:55:42.855Z,15.06
2018-08-27T01:55:43.455Z,15.11
2018-08-27T01:55:44.054Z,15.09
2018-08-27T01:55:44.654Z,15.13
2018-08-27T01:55:45.255Z,15.06
2018-08-27T01:55:45.854Z,15.08
2018-08-27T01:55:46.453Z,15.11
2018-08-27T01:56:40.958Z,15.11
2018-08-27T01:56:41.530Z,15.08
2018-08-27T01:56:42.129Z,15.12
2018-08-27T01:56:42.729Z,15.13
2018-08-27T01:56:43.329Z,15.11
2018-08-27T01:56:43.932Z,15.13
2018-08-27T01:56:44.529Z,15.11
2018-08-27T01:56:45.129Z,15.13
2018-08-27T01:57:39.633Z,15.13
2018-08-27T01:57:40.208Z,15.12
2018-08-27T01:57:40.806Z,15.11
2018-08-27T01:57:41.405Z,15.19
2018-08-27T01:57:42.006Z,15.12
2018-08-27T01:57:42.606Z,15.09
2018-08-27T01:57:43.205Z,15.09
2018-08-27T01:57:43.805Z,15.12
2018-08-27T01:58:37.285Z,15.09
2018-08-27T01:58:37.858Z,15.09
2018-08-27T01:58:38.458Z,15.08
2018-08-27T01:58:39.059Z,15.17
2018-08-27T01:58:39.658Z,15.13
2018-08-27T01:58:40.258Z,15.20
2018-08-27T01:58:40.857Z,15.13
2018-08-27T01:58:41.458Z,15.13
2018-08-27T01:59:34.938Z,15.11
2018-08-27T01:59:35.510Z,15.09
2018-08-27T01:59:36.113Z,15.08
2018-08-27T01:59:36.714Z,15.09
2018-08-27T01:59:37.309Z,15.17
2018-08-27T01:59:37.910Z,15.15
2018-08-27T01:59:38.508Z,15.09
2018-08-27T01:59:39.110Z,15.19
2018-08-27T02:00:33.612Z,15.12
2018-08-27T02:00:34.185Z,15.11
2018-08-27T02:00:34.786Z,15.12
2018-08-27T02:00:35.385Z,15.15
2018-08-27T02:00:35.987Z,15.17
2018-08-27T02:00:36.584Z,15.15
2018-08-27T02:00:37.184Z,15.15
2018-08-27T02:00:37.784Z,15.15
2018-08-27T02:01:32.288Z,15.19
2018-08-27T02:01:32.860Z,15.15
2018-08-27T02:01:33.461Z,15.15
2018-08-27T02:01:34.060Z,15.15
2018-08-27T02:01:34.659Z,15.09
2018-08-27T02:01:35.259Z,15.15
2018-08-27T02:01:35.859Z,15.19
2018-08-27T02:01:36.460Z,15.17
2018-08-27T02:02:29.941Z,15.15
2018-08-27T02:02:30.514Z,15.15
2018-08-27T02:02:31.113Z,15.15
2018-08-27T02:02:31.716Z,15.21
2018-08-27T02:02:32.312Z,15.13
2018-08-27T02:02:32.912Z,15.12
2018-08-27T02:02:33.512Z,15.12
2018-08-27T02:02:34.113Z,15.12
2018-08-27T02:03:27.593Z,15.15
2018-08-27T02:03:28.167Z,15.20
2018-08-27T02:03:28.766Z,15.15
2018-08-27T02:03:29.367Z,15.19
2018-08-27T02:03:29.964Z,15.24
2018-08-27T02:03:30.565Z,15.20
2018-08-27T02:03:31.163Z,15.24
2018-08-27T02:03:31.765Z,15.24
2018-08-27T02:04:26.269Z,15.19
2018-08-27T02:04:26.839Z,15.23
2018-08-27T02:04:27.443Z,15.23
2018-08-27T02:04:28.039Z,15.24
2018-08-27T02:04:28.639Z,15.24
2018-08-27T02:04:29.240Z,15.19
2018-08-27T02:04:29.840Z,15.24
2018-08-27T02:04:30.441Z,15.21
2018-08-27T02:05:24.943Z,15.13
2018-08-27T02:05:25.515Z,15.21
2018-08-27T02:05:26.116Z,15.27
2018-08-27T02:05:26.715Z,15.27
2018-08-27T02:05:27.314Z,15.23
2018-08-27T02:05:27.914Z,15.20
2018-08-27T02:05:28.515Z,15.24
2018-08-27T02:05:29.125Z,15.26
2018-08-27T02:06:22.595Z,15.26
2018-08-27T02:06:23.173Z,15.23
2018-08-27T02:06:23.769Z,15.23
2018-08-27T02:06:24.368Z,15.26
2018-08-27T02:06:24.967Z,15.21
2018-08-27T02:06:25.567Z,15.20
2018-08-27T02:06:26.167Z,15.26
2018-08-27T02:06:26.768Z,15.21
2018-08-27T02:07:21.269Z,15.23
2018-08-27T02:07:21.842Z,15.28
2018-08-27T02:07:22.445Z,15.24
2018-08-27T02:07:23.062Z,15.23
2018-08-27T02:07:23.642Z,15.28
2018-08-27T02:07:24.248Z,15.26
2018-08-27T02:07:24.842Z,15.23
2018-08-27T02:07:25.442Z,15.21
2018-08-27T02:08:18.937Z,15.24
2018-08-27T02:08:19.495Z,15.21
2018-08-27T02:08:20.096Z,15.26
2018-08-27T02:08:20.696Z,15.26
2018-08-27T02:08:21.294Z,15.21
2018-08-27T02:08:21.896Z,15.21
2018-08-27T02:08:22.498Z,15.26
2018-08-27T02:08:23.094Z,15.21
2018-08-27T02:09:16.574Z,15.26
2018-08-27T02:09:17.147Z,15.23
2018-08-27T02:09:17.745Z,15.26
2018-08-27T02:09:18.352Z,15.24
2018-08-27T02:09:18.947Z,15.23
2018-08-27T02:09:19.547Z,15.24
2018-08-27T02:09:20.149Z,15.21
2018-08-27T02:09:20.746Z,15.23
2018-08-27T02:10:15.249Z,15.23
2018-08-27T02:10:15.820Z,15.28
2018-08-27T02:10:16.424Z,15.31
2018-08-27T02:10:17.022Z,15.28
2018-08-27T02:10:17.622Z,15.26
2018-08-27T02:10:18.220Z,15.27
2018-08-27T02:10:18.822Z,15.33
2018-08-27T02:10:19.421Z,15.28
2018-08-27T02:11:13.927Z,15.23
2018-08-27T02:11:14.502Z,15.28
2018-08-27T02:11:15.098Z,15.24
2018-08-27T02:11:15.697Z,15.33
2018-08-27T02:11:16.297Z,15.24
2018-08-27T02:11:16.899Z,15.24
2018-08-27T02:11:17.496Z,15.30
2018-08-27T02:11:18.098Z,15.27
2018-08-27T02:12:11.578Z,15.24
2018-08-27T02:12:12.149Z,15.24
2018-08-27T02:12:12.750Z,15.24
2018-08-27T02:12:13.352Z,15.35
2018-08-27T02:12:13.949Z,15.35
2018-08-27T02:12:14.549Z,15.27
2018-08-27T02:12:15.148Z,15.24
2018-08-27T02:12:15.754Z,15.21
2018-08-27T02:13:09.228Z,15.33
2018-08-27T02:13:09.801Z,15.27
2018-08-27T02:13:10.401Z,15.24
2018-08-27T02:13:11.004Z,15.26
2018-08-27T02:13:11.600Z,15.28
2018-08-27T02:13:12.200Z,15.31
2018-08-27T02:13:12.805Z,15.23
2018-08-27T02:13:13.401Z,15.30
2018-08-27T02:14:06.880Z,15.27
2018-08-27T02:14:07.452Z,15.24
2018-08-27T02:14:08.053Z,15.33
2018-08-27T02:14:08.652Z,15.28
2018-08-27T02:14:09.254Z,15.21
2018-08-27T02:14:09.853Z,15.30
2018-08-27T02:14:10.452Z,15.27
2018-08-27T02:14:11.054Z,15.21
2018-08-27T02:15:05.556Z,15.31
2018-08-27T02:15:06.129Z,15.26
2018-08-27T02:15:06.733Z,15.26
2018-08-27T02:15:07.334Z,15.24
2018-08-27T02:15:07.925Z,15.23
2018-08-27T02:15:08.525Z,15.26
2018-08-27T02:15:09.125Z,15.23
2018-08-27T02:15:09.725Z,15.30
2018-08-27T02:16:04.233Z,15.27
2018-08-27T02:16:04.803Z,15.28
2018-08-27T02:16:05.404Z,15.30
2018-08-27T02:16:06.007Z,15.26
2018-08-27T02:16:06.603Z,15.28
2018-08-27T02:16:07.205Z,15.26
2018-08-27T02:16:07.809Z,15.35
2018-08-27T02:16:08.404Z,15.30
2018-08-27T02:17:01.889Z,15.30
2018-08-27T02:17:02.456Z,15.35
2018-08-27T02:17:03.057Z,15.36
2018-08-27T02:17:03.655Z,15.39
2018-08-27T02:17:04.253Z,15.23
2018-08-27T02:17:04.856Z,15.36
2018-08-27T02:17:05.454Z,15.35
2018-08-27T02:17:06.058Z,15.35
2018-08-27T02:17:59.535Z,15.35
2018-08-27T02:18:00.108Z,15.28
2018-08-27T02:18:00.710Z,15.33
2018-08-27T02:18:01.310Z,15.33
2018-08-27T02:18:01.907Z,15.35
2018-08-27T02:18:02.507Z,15.30
2018-08-27T02:18:03.106Z,15.30
2018-08-27T02:18:03.707Z,15.31
2018-08-27T02:18:58.211Z,15.35
2018-08-27T02:18:58.782Z,15.31
2018-08-27T02:18:59.383Z,15.27
2018-08-27T02:18:59.985Z,15.31
2018-08-27T02:19:00.582Z,15.36
2018-08-27T02:19:01.185Z,15.38
2018-08-27T02:19:01.783Z,15.31
2018-08-27T02:19:02.388Z,15.24
2018-08-27T02:19:55.862Z,15.28
2018-08-27T02:19:56.436Z,15.36
2018-08-27T02:19:57.036Z,15.26
2018-08-27T02:19:57.636Z,15.30
2018-08-27T02:19:58.235Z,15.26
2018-08-27T02:19:58.835Z,15.28
2018-08-27T02:19:59.435Z,15.26
2018-08-27T02:20:00.034Z,15.30
2018-08-27T02:20:53.519Z,15.26
2018-08-27T02:20:54.140Z,15.27
2018-08-27T02:20:54.696Z,15.26
2018-08-27T02:20:55.323Z,15.26
2018-08-27T02:20:55.897Z,15.30
2018-08-27T02:20:56.541Z,15.27
2018-08-27T02:20:57.090Z,15.26
2018-08-27T02:20:57.734Z,15.26
2018-08-27T02:21:51.167Z,15.33
2018-08-27T02:21:51.739Z,15.28
2018-08-27T02:21:52.342Z,15.31
2018-08-27T02:21:52.944Z,15.21
2018-08-27T02:21:53.537Z,15.30
2018-08-27T02:21:54.136Z,15.30
2018-08-27T02:21:54.738Z,15.27
2018-08-27T02:21:55.336Z,15.26
2018-08-27T02:22:49.841Z,15.19
2018-08-27T02:22:50.414Z,15.27
2018-08-27T02:22:51.018Z,15.26
2018-08-27T02:22:51.614Z,15.28
2018-08-27T02:22:52.213Z,15.26
2018-08-27T02:22:52.815Z,15.30
2018-08-27T02:22:53.414Z,15.23
2018-08-27T02:22:54.016Z,15.26
2018-08-27T02:23:47.493Z,15.26
2018-08-27T02:23:48.066Z,15.27
2018-08-27T02:23:48.665Z,15.36
2018-08-27T02:23:49.267Z,15.27
2018-08-27T02:23:49.868Z,15.30
2018-08-27T02:23:50.465Z,15.24
2018-08-27T02:23:51.067Z,15.27
2018-08-27T02:23:51.666Z,15.31
2018-08-27T02:24:45.146Z,15.27
2018-08-27T02:24:45.721Z,15.31
2018-08-27T02:24:46.318Z,15.28
2018-08-27T02:24:46.920Z,15.36
2018-08-27T02:24:47.518Z,15.35
2018-08-27T02:24:48.117Z,15.27
2018-08-27T02:24:48.719Z,15.42
2018-08-27T02:24:49.318Z,15.28
2018-08-27T02:25:42.797Z,15.36
2018-08-27T02:25:43.368Z,15.35
2018-08-27T02:25:44.006Z,15.26
2018-08-27T02:25:44.575Z,15.27
2018-08-27T02:25:45.188Z,15.38
2018-08-27T02:25:45.778Z,15.33
2018-08-27T02:25:46.410Z,15.26
2018-08-27T02:25:46.985Z,15.30
2018-08-27T02:26:41.473Z,15.23
2018-08-27T02:26:42.045Z,15.28
2018-08-27T02:26:42.646Z,15.26
2018-08-27T02:26:43.245Z,15.31
2018-08-27T02:26:43.845Z,15.31
2018-08-27T02:26:44.444Z,15.28
2018-08-27T02:26:45.044Z,15.33
2018-08-27T02:26:45.644Z,15.27
2018-08-27T02:27:39.124Z,15.28
2018-08-27T02:27:39.697Z,15.28
2018-08-27T02:27:40.297Z,15.27
2018-08-27T02:27:40.899Z,15.24
2018-08-27T02:27:41.499Z,15.24
2018-08-27T02:27:42.098Z,15.26
2018-08-27T02:27:42.700Z,15.31
2018-08-27T02:27:43.295Z,15.33
2018-08-27T02:28:36.776Z,15.35
2018-08-27T02:28:37.348Z,15.30
2018-08-27T02:28:37.949Z,15.36
2018-08-27T02:28:38.550Z,15.31
2018-08-27T02:28:39.148Z,15.42
2018-08-27T02:28:39.747Z,15.35
2018-08-27T02:28:40.352Z,15.38
2018-08-27T02:28:40.947Z,15.35
2018-08-27T02:29:34.430Z,15.28
2018-08-27T02:29:35.001Z,15.28
2018-08-27T02:29:35.601Z,15.33
2018-08-27T02:29:36.201Z,15.39
2018-08-27T02:29:36.804Z,15.28
2018-08-27T02:29:37.402Z,15.23
2018-08-27T02:29:38.000Z,15.30
2018-08-27T02:29:38.600Z,15.31
2018-08-27T02:30:33.105Z,15.27
2018-08-27T02:30:33.675Z,15.39
2018-08-27T02:30:34.276Z,15.31
2018-08-27T02:30:34.876Z,15.31
2018-08-27T02:30:35.475Z,15.39
2018-08-27T02:30:36.075Z,15.26
2018-08-27T02:30:36.675Z,15.35
2018-08-27T02:30:37.278Z,15.31
2018-08-27T02:31:30.755Z,15.36
2018-08-27T02:31:31.331Z,15.35
2018-08-27T02:31:31.930Z,15.31
2018-08-27T02:31:32.535Z,15.35
2018-08-27T02:31:33.127Z,15.38
2018-08-27T02:31:33.732Z,15.39
2018-08-27T02:31:34.329Z,15.38
2018-08-27T02:31:34.927Z,15.39
2018-08-27T02:32:29.431Z,15.33
2018-08-27T02:32:30.004Z,15.38
2018-08-27T02:32:30.603Z,15.36
2018-08-27T02:32:31.203Z,15.36
2018-08-27T02:32:31.803Z,15.42
2018-08-27T02:32:32.407Z,15.30
2018-08-27T02:32:33.011Z,15.36
2018-08-27T02:32:33.603Z,15.31
2018-08-27T02:33:28.107Z,15.35
2018-08-27T02:33:28.679Z,15.39
2018-08-27T02:33:29.279Z,15.39
2018-08-27T02:33:29.880Z,15.39
2018-08-27T02:33:30.478Z,15.36
2018-08-27T02:33:31.077Z,15.35
2018-08-27T02:33:31.681Z,15.35
2018-08-27T02:33:32.278Z,15.38
2018-08-27T02:34:25.758Z,15.36
2018-08-27T02:34:26.332Z,15.31
2018-08-27T02:34:26.932Z,15.36
2018-08-27T02:34:27.533Z,15.41
2018-08-27T02:34:28.132Z,15.35
2018-08-27T02:34:28.731Z,15.41
2018-08-27T02:34:29.331Z,15.35
2018-08-27T02:34:29.932Z,15.38
2018-08-27T02:35:24.435Z,15.38
2018-08-27T02:35:25.007Z,15.41
2018-08-27T02:35:25.607Z,15.45
2018-08-27T02:35:26.206Z,15.42
2018-08-27T02:35:26.810Z,15.41
2018-08-27T02:35:27.406Z,15.45
2018-08-27T02:35:28.005Z,15.38
2018-08-27T02:35:28.606Z,15.31
2018-08-27T02:36:23.111Z,15.35
2018-08-27T02:36:23.682Z,15.31
2018-08-27T02:36:24.282Z,15.39
2018-08-27T02:36:24.882Z,15.43
2018-08-27T02:36:25.483Z,15.31
2018-08-27T02:36:26.081Z,15.41
2018-08-27T02:36:26.681Z,15.39
2018-08-27T02:36:27.281Z,15.31
2018-08-27T02:37:20.762Z,15.31
2018-08-27T02:37:21.334Z,15.31
2018-08-27T02:37:21.936Z,15.41
2018-08-27T02:37:22.533Z,15.39
2018-08-27T02:37:23.134Z,15.36
2018-08-27T02:37:23.734Z,15.39
2018-08-27T02:37:24.333Z,15.42
2018-08-27T02:37:24.934Z,15.42
2018-08-27T02:38:18.415Z,15.41
2018-08-27T02:38:18.985Z,15.35
2018-08-27T02:38:19.589Z,15.33
2018-08-27T02:38:20.188Z,15.39
2018-08-27T02:38:20.786Z,15.36
2018-08-27T02:38:21.385Z,15.36
2018-08-27T02:38:21.985Z,15.41
2018-08-27T02:38:22.585Z,15.39
2018-08-27T02:39:16.065Z,15.35
2018-08-27T02:39:16.637Z,15.43
2018-08-27T02:39:17.245Z,15.31
2018-08-27T02:39:17.840Z,15.42
2018-08-27T02:39:18.437Z,15.45
2018-08-27T02:39:19.039Z,15.41
2018-08-27T02:39:19.640Z,15.43
2018-08-27T02:39:20.236Z,15.43
2018-08-27T02:40:13.720Z,15.38
2018-08-27T02:40:14.290Z,15.39
2018-08-27T02:40:14.893Z,15.36
2018-08-27T02:40:15.488Z,15.38
2018-08-27T02:40:16.089Z,15.41
2018-08-27T02:40:16.688Z,15.38
2018-08-27T02:40:17.334Z,15.46
2018-08-27T02:40:17.888Z,15.39
2018-08-27T02:41:12.392Z,15.35
2018-08-27T02:41:12.965Z,15.39
2018-08-27T02:41:13.565Z,15.41
2018-08-27T02:41:14.165Z,15.41
2018-08-27T02:41:14.764Z,15.35
2018-08-27T02:41:15.364Z,15.38
2018-08-27T02:41:15.963Z,15.36
2018-08-27T02:41:16.564Z,15.36
2018-08-27T02:42:10.044Z,15.39
2018-08-27T02:42:10.617Z,15.43
2018-08-27T02:42:11.226Z,15.36
2018-08-27T02:42:11.818Z,15.33
2018-08-27T02:42:12.416Z,15.30
2018-08-27T02:42:13.016Z,15.39
2018-08-27T02:42:13.616Z,15.36
2018-08-27T02:42:14.214Z,15.38
2018-08-27T02:43:08.720Z,15.35
2018-08-27T02:43:09.291Z,15.35
2018-08-27T02:43:09.897Z,15.43
2018-08-27T02:43:10.494Z,15.36
2018-08-27T02:43:11.091Z,15.36
2018-08-27T02:43:11.691Z,15.41
2018-08-27T02:43:12.296Z,15.35
2018-08-27T02:43:12.904Z,15.42
2018-08-27T02:44:06.372Z,15.39
2018-08-27T02:44:06.946Z,15.39
2018-08-27T02:44:07.543Z,15.38
2018-08-27T02:44:08.148Z,15.35
2018-08-27T02:44:08.744Z,15.33
2018-08-27T02:44:09.343Z,15.39
2018-08-27T02:44:09.942Z,15.42
2018-08-27T02:44:10.543Z,15.35
2018-08-27T02:45:05.050Z,15.39
2018-08-27T02:45:05.620Z,15.35
2018-08-27T02:45:06.219Z,15.46
2018-08-27T02:45:06.817Z,15.41
2018-08-27T02:45:07.419Z,15.36
2018-08-27T02:45:08.019Z,15.35
2018-08-27T02:45:08.617Z,15.39
2018-08-27T02:45:09.218Z,15.42
2018-08-27T02:46:03.211Z,15.36
2018-08-27T02:46:03.786Z,15.41
2018-08-27T02:46:04.384Z,15.36
2018-08-27T02:46:04.984Z,15.41
2018-08-27T02:46:05.584Z,15.41
2018-08-27T02:46:06.181Z,15.45
2018-08-27T02:46:06.781Z,15.36
2018-08-27T02:47:00.352Z,15.39
2018-08-27T02:47:00.923Z,15.42
2018-08-27T02:47:01.522Z,15.38
2018-08-27T02:47:02.127Z,15.45
2018-08-27T02:47:02.723Z,15.42
2018-08-27T02:47:03.322Z,15.45
2018-08-27T02:47:03.923Z,15.42
2018-08-27T02:47:04.522Z,15.39
2018-08-27T02:47:58.002Z,15.39
2018-08-27T02:47:58.575Z,15.43
2018-08-27T02:47:59.180Z,15.41
2018-08-27T02:47:59.776Z,15.45
2018-08-27T02:48:00.376Z,15.42
2018-08-27T02:48:00.976Z,15.39
2018-08-27T02:48:01.576Z,15.38
2018-08-27T02:48:02.174Z,15.45
2018-08-27T02:48:56.678Z,15.45
2018-08-27T02:48:57.252Z,15.39
2018-08-27T02:48:57.851Z,15.41
2018-08-27T02:48:58.449Z,15.38
2018-08-27T02:48:59.051Z,15.42
2018-08-27T02:48:59.650Z,15.43
2018-08-27T02:49:00.249Z,15.46
2018-08-27T02:49:00.851Z,15.41
2018-08-27T02:49:55.354Z,15.41
2018-08-27T02:49:55.925Z,15.42
2018-08-27T02:49:56.525Z,15.36
2018-08-27T02:49:57.125Z,15.45
2018-08-27T02:49:57.729Z,15.41
2018-08-27T02:49:58.325Z,15.45
2018-08-27T02:49:58.927Z,15.38
2018-08-27T02:49:59.524Z,15.43
2018-08-27T02:50:53.005Z,15.42
2018-08-27T02:50:53.577Z,15.39
2018-08-27T02:50:54.179Z,15.38
2018-08-27T02:50:54.778Z,15.45
2018-08-27T02:50:55.377Z,15.48
2018-08-27T02:50:55.978Z,15.42
2018-08-27T02:50:56.578Z,15.48
2018-08-27T02:50:57.177Z,15.42
2018-08-27T02:51:50.657Z,15.41
2018-08-27T02:51:51.231Z,15.45
2018-08-27T02:51:51.830Z,15.43
2018-08-27T02:51:52.433Z,15.39
2018-08-27T02:51:53.029Z,15.41
2018-08-27T02:51:53.631Z,15.43
2018-08-27T02:51:54.228Z,15.46
2018-08-27T02:51:54.831Z,15.49
2018-08-27T02:52:48.310Z,15.43
2018-08-27T02:52:48.882Z,15.45
2018-08-27T02:52:49.482Z,15.42
2018-08-27T02:52:50.084Z,15.42
2018-08-27T02:52:50.682Z,15.45
2018-08-27T02:52:51.280Z,15.41
2018-08-27T02:52:51.881Z,15.35
2018-08-27T02:52:52.484Z,15.41
2018-08-27T02:53:46.064Z,15.42
2018-08-27T02:53:46.636Z,15.41
2018-08-27T02:53:47.236Z,15.38
2018-08-27T02:53:47.837Z,15.35
2018-08-27T02:53:48.436Z,15.46
2018-08-27T02:53:49.036Z,15.38
2018-08-27T02:53:49.636Z,15.36
2018-08-27T02:53:50.235Z,15.43
2018-08-27T02:54:43.714Z,15.45
2018-08-27T02:54:44.287Z,15.48
2018-08-27T02:54:44.887Z,15.46
2018-08-27T02:54:45.491Z,15.35
2018-08-27T02:54:46.087Z,15.46
2018-08-27T02:54:46.687Z,15.42
2018-08-27T02:54:47.287Z,15.42
2018-08-27T02:54:47.887Z,15.46
2018-08-27T02:55:41.367Z,15.43
2018-08-27T02:55:41.939Z,15.42
2018-08-27T02:55:42.538Z,15.41
2018-08-27T02:55:43.141Z,15.45
2018-08-27T02:55:43.738Z,15.43
2018-08-27T02:55:44.340Z,15.36
2018-08-27T02:55:44.941Z,15.36
2018-08-27T02:55:45.540Z,15.41
2018-08-27T02:56:40.043Z,15.41
2018-08-27T02:56:40.614Z,15.46
2018-08-27T02:56:41.215Z,15.42
2018-08-27T02:56:41.815Z,15.38
2018-08-27T02:56:42.413Z,15.38
2018-08-27T02:56:43.015Z,15.42
2018-08-27T02:56:43.616Z,15.42
2018-08-27T02:56:44.217Z,15.45
2018-08-27T02:57:38.720Z,15.46
2018-08-27T02:57:39.291Z,15.45
2018-08-27T02:57:39.889Z,15.46
2018-08-27T02:57:40.492Z,15.45
2018-08-27T02:57:41.091Z,15.39
2018-08-27T02:57:41.690Z,15.45
2018-08-27T02:57:42.292Z,15.41
2018-08-27T02:57:42.888Z,15.38
2018-08-27T02:58:36.370Z,15.45
2018-08-27T02:58:36.942Z,15.43
2018-08-27T02:58:37.542Z,15.41
2018-08-27T02:58:38.143Z,15.46
2018-08-27T02:58:38.743Z,15.39
2018-08-27T02:58:39.343Z,15.45
2018-08-27T02:58:39.941Z,15.39
2018-08-27T02:58:40.543Z,15.38
2018-08-27T02:59:35.045Z,15.38
2018-08-27T02:59:35.616Z,15.48
2018-08-27T02:59:36.218Z,15.51
2018-08-27T02:59:36.817Z,15.49
2018-08-27T02:59:37.416Z,15.46
2018-08-27T02:59:38.017Z,15.48
2018-08-27T02:59:38.616Z,15.48
2018-08-27T02:59:39.217Z,15.45
2018-08-27T03:00:33.721Z,15.36
2018-08-27T03:00:34.292Z,15.51
2018-08-27T03:00:34.893Z,15.49
2018-08-27T03:00:35.494Z,15.45
2018-08-27T03:00:36.093Z,15.48
2018-08-27T03:00:36.691Z,15.51
2018-08-27T03:00:37.311Z,15.38
2018-08-27T03:00:37.896Z,15.49
2018-08-27T03:01:32.397Z,15.39
2018-08-27T03:01:32.972Z,15.51
2018-08-27T03:01:33.568Z,15.43
2018-08-27T03:01:34.168Z,15.51
2018-08-27T03:01:34.767Z,15.48
2018-08-27T03:01:35.368Z,15.48
2018-08-27T03:01:35.968Z,15.48
2018-08-27T03:01:36.568Z,15.46
2018-08-27T03:02:30.049Z,15.48
2018-08-27T03:02:30.621Z,15.48
2018-08-27T03:02:31.220Z,15.49
2018-08-27T03:02:31.822Z,15.42
2018-08-27T03:02:32.422Z,15.49
2018-08-27T03:02:33.021Z,15.51
2018-08-27T03:02:33.620Z,15.52
2018-08-27T03:02:34.222Z,15.49
2018-08-27T03:03:28.723Z,15.41
2018-08-27T03:03:29.296Z,15.43
2018-08-27T03:03:29.897Z,15.43
2018-08-27T03:03:30.499Z,15.49
2018-08-27T03:03:31.096Z,15.46
2018-08-27T03:03:31.695Z,15.45
2018-08-27T03:03:32.296Z,15.51